createdAt,value
2022-12-23T00:04:08.392Z,5.10
2022-12-23T00:09:11.586Z,5.14
2022-12-23T00:14:32.805Z,5.14
2022-12-23T00:19:35.551Z,5.13
2022-12-23T00:24:38.678Z,5.12
2022-12-23T00:29:44.202Z,5.12
2022-12-23T00:34:46.918Z,5.12
2022-12-23T00:40:08.516Z,5.11
2022-12-23T00:45:16.920Z,5.09
2022-12-23T00:50:19.658Z,5.10
2022-12-23T00:55:23.443Z,5.14
2022-12-23T01:00:44.988Z,5.16
2022-12-23T01:05:48.251Z,5.15
2022-12-23T01:10:50.964Z,5.16
2022-12-23T01:15:59.395Z,5.18
2022-12-23T01:21:07.215Z,5.19
2022-12-23T01:26:11.140Z,5.19
2022-12-23T01:31:14.014Z,5.17
2022-12-23T01:36:17.122Z,5.17
2022-12-23T01:41:42.689Z,5.15
2022-12-23T01:46:45.739Z,5.14
2022-12-23T01:51:48.856Z,5.11
2022-12-23T01:56:51.917Z,5.09
2022-12-23T02:02:13.629Z,5.05
2022-12-23T02:07:37.118Z,5.02
2022-12-23T02:13:06.475Z,5.00
2022-12-23T02:18:21.997Z,5.00
2022-12-23T02:23:37.867Z,5.02
2022-12-23T02:28:56.016Z,5.04
2022-12-23T02:34:28.307Z,5.01
2022-12-23T02:39:45.274Z,4.98
2022-12-23T02:45:04.575Z,4.99
2022-12-23T02:50:15.040Z,5.02
2022-12-23T02:55:26.649Z,5.03
2022-12-23T03:00:33.089Z,5.03
2022-12-23T03:05:43.341Z,5.01
2022-12-23T03:11:09.962Z,4.98
2022-12-23T03:16:35.755Z,4.95
2022-12-23T03:21:48.339Z,4.92
2022-12-23T03:27:02.855Z,4.89
2022-12-23T03:32:07.412Z,4.85
2022-12-23T03:37:12.184Z,4.83
2022-12-23T03:42:24.941Z,4.81
2022-12-23T03:47:35.346Z,4.83
2022-12-23T03:52:50.647Z,4.84
2022-12-23T03:57:56.417Z,4.81
2022-12-23T04:03:19.364Z,4.79
2022-12-23T04:08:27.033Z,4.78
2022-12-23T04:13:31.236Z,4.78
2022-12-23T04:18:34.508Z,4.80
2022-12-23T04:23:37.298Z,4.82
2022-12-23T04:28:40.082Z,4.81
2022-12-23T04:33:42.853Z,4.81
2022-12-23T04:38:45.591Z,4.80
2022-12-23T04:43:53.055Z,4.80
2022-12-23T04:48:56.451Z,4.82
2022-12-23T04:53:59.228Z,4.84
2022-12-23T04:59:02.435Z,4.85
2022-12-23T05:04:05.365Z,4.86
2022-12-23T05:09:08.210Z,4.84
2022-12-23T05:14:11.893Z,4.82
2022-12-23T05:19:14.668Z,4.83
2022-12-23T05:24:17.409Z,4.80
2022-12-23T05:29:20.190Z,4.78
2022-12-23T05:34:22.981Z,4.75
2022-12-23T05:39:25.739Z,4.69
2022-12-23T05:44:28.488Z,4.66
2022-12-23T05:49:31.358Z,4.66
2022-12-23T05:54:34.102Z,4.66
2022-12-23T05:59:36.909Z,4.60
2022-12-23T06:04:39.703Z,4.53
2022-12-23T06:09:42.484Z,4.52
2022-12-23T06:14:45.268Z,4.52
2022-12-23T06:19:48.026Z,4.52
2022-12-23T06:24:51.161Z,4.55
2022-12-23T06:29:54.926Z,4.55
2022-12-23T06:34:57.639Z,4.55
2022-12-23T06:40:00.394Z,4.55
2022-12-23T06:45:03.824Z,4.56
2022-12-23T06:50:07.048Z,4.58
2022-12-23T06:55:09.793Z,4.62
2022-12-23T07:00:16.666Z,4.63
2022-12-23T07:05:19.430Z,4.62
2022-12-23T07:10:22.226Z,4.63
2022-12-23T07:15:25.055Z,4.64
2022-12-23T07:20:27.985Z,4.72
2022-12-23T07:25:31.157Z,4.92
2022-12-23T07:30:34.004Z,5.07
2022-12-23T07:35:36.843Z,4.99
2022-12-23T07:40:39.645Z,5.08
2022-12-23T07:45:42.576Z,5.10
2022-12-23T07:50:45.385Z,5.17
2022-12-23T07:55:54.626Z,5.32
2022-12-23T08:01:05.128Z,5.29
2022-12-23T08:06:12.714Z,5.16
2022-12-23T08:11:16.391Z,5.11
2022-12-23T08:16:19.894Z,5.03
2022-12-23T08:21:22.812Z,5.19
2022-12-23T08:26:26.005Z,5.43
2022-12-23T08:31:33.884Z,5.55
2022-12-23T08:36:36.847Z,5.69
2022-12-23T08:41:43.916Z,5.81
2022-12-23T08:46:46.627Z,5.92
2022-12-23T08:51:49.858Z,5.99
2022-12-23T08:56:52.749Z,6.05
2022-12-23T09:01:55.622Z,6.13
2022-12-23T09:06:58.557Z,6.13
2022-12-23T09:12:01.432Z,6.14
2022-12-23T09:17:04.256Z,6.11
2022-12-23T09:22:08.442Z,5.83
2022-12-23T09:27:11.210Z,5.56
2022-12-23T09:32:13.993Z,5.32
2022-12-23T09:37:17.437Z,5.20
2022-12-23T09:42:56.823Z,5.54
2022-12-23T09:47:59.719Z,6.15
2022-12-23T09:53:06.393Z,6.43
2022-12-23T09:59:01.783Z,6.37
2022-12-23T10:04:19.239Z,6.22
2022-12-23T10:09:22.446Z,6.22
2022-12-23T10:14:31.349Z,6.22
2022-12-23T10:19:41.965Z,6.24
2022-12-23T10:24:47.226Z,6.19
2022-12-23T10:29:50.847Z,6.13
2022-12-23T10:35:15.811Z,6.23
2022-12-23T10:40:52.754Z,6.31
2022-12-23T10:45:55.468Z,6.46
2022-12-23T10:51:19.941Z,6.44
2022-12-23T10:56:24.043Z,6.48
2022-12-23T11:01:30.206Z,6.52
2022-12-23T11:06:38.354Z,6.57
2022-12-23T11:11:53.595Z,6.63
2022-12-23T11:16:58.054Z,6.66
2022-12-23T11:22:01.525Z,6.69
2022-12-23T11:27:07.443Z,6.67
2022-12-23T11:32:25.300Z,6.74
2022-12-23T11:37:43.185Z,6.74
2022-12-23T11:42:51.793Z,6.68
2022-12-23T11:47:58.079Z,6.64
2022-12-23T11:53:12.543Z,6.69
2022-12-23T11:58:21.569Z,6.64
2022-12-23T12:03:30.759Z,6.62
2022-12-23T12:08:37.595Z,6.65
2022-12-23T12:13:48.101Z,6.67
2022-12-23T12:18:55.708Z,6.77
2022-12-23T12:24:27.144Z,6.78
2022-12-23T12:29:39.939Z,6.78
2022-12-23T12:34:53.061Z,6.75
2022-12-23T12:40:18.678Z,6.71
2022-12-23T12:45:32.954Z,6.73
2022-12-23T12:51:08.873Z,6.63
2022-12-23T12:56:38.596Z,6.54
2022-12-23T13:01:58.230Z,6.50
2022-12-23T13:07:10.425Z,6.52
2022-12-23T13:12:51.663Z,6.55
2022-12-23T13:18:14.972Z,6.54
2022-12-23T13:23:45.081Z,6.60
2022-12-23T13:28:56.357Z,6.72
2022-12-23T13:34:32.395Z,6.83
2022-12-23T13:40:03.506Z,6.67
2022-12-23T13:45:16.315Z,6.26
2022-12-23T13:51:08.800Z,5.92
2022-12-23T13:56:17.032Z,5.72
2022-12-23T14:01:40.603Z,5.60
2022-12-23T14:06:45.283Z,5.54
2022-12-23T14:11:48.392Z,5.52
2022-12-23T14:17:00.284Z,5.47
2022-12-23T14:22:21.906Z,5.38
2022-12-23T14:27:37.180Z,5.32
2022-12-23T14:32:43.055Z,5.28
2022-12-23T14:38:17.067Z,5.19
2022-12-23T14:43:23.083Z,5.12
2022-12-23T14:48:35.817Z,5.09
2022-12-23T14:53:54.061Z,5.09
2022-12-23T14:58:58.633Z,5.05
2022-12-23T15:04:26.195Z,5.05
2022-12-23T15:09:32.672Z,5.07
2022-12-23T15:14:39.882Z,5.06
2022-12-23T15:19:47.268Z,5.08
2022-12-23T15:24:50.088Z,5.11
2022-12-23T15:29:54.381Z,5.13
2022-12-23T15:35:06.226Z,5.13
2022-12-23T15:40:24.566Z,5.12
2022-12-23T15:45:33.758Z,5.10
2022-12-23T15:50:42.273Z,5.10
2022-12-23T15:55:48.891Z,5.09
2022-12-23T16:00:54.034Z,5.08
2022-12-23T16:06:33.118Z,5.08
2022-12-23T16:11:49.817Z,5.03
2022-12-23T16:16:53.132Z,5.02
2022-12-23T16:21:56.535Z,5.02
2022-12-23T16:27:00.220Z,5.03
2022-12-23T16:32:03.179Z,5.01
2022-12-23T16:37:07.992Z,5.02
2022-12-23T16:42:10.815Z,5.01
2022-12-23T16:47:17.743Z,4.96
2022-12-23T16:52:20.485Z,4.99
2022-12-23T16:57:23.388Z,5.04
2022-12-23T17:02:28.723Z,5.04
2022-12-23T17:07:31.601Z,5.05
2022-12-23T17:12:34.387Z,5.06
2022-12-23T17:17:38.344Z,5.03
2022-12-23T17:22:44.203Z,5.00
2022-12-23T17:27:53.427Z,4.98
2022-12-23T17:32:58.735Z,4.95
2022-12-23T17:38:01.531Z,4.92
2022-12-23T17:43:04.406Z,4.94
2022-12-23T17:48:14.840Z,4.94
2022-12-23T17:53:20.951Z,4.94
2022-12-23T17:58:23.727Z,4.96
2022-12-23T18:03:26.533Z,5.00
2022-12-23T18:08:29.481Z,5.01
2022-12-23T18:13:32.759Z,5.00
2022-12-23T18:18:45.531Z,5.00
2022-12-23T18:23:49.805Z,4.97
2022-12-23T18:28:54.836Z,4.90
2022-12-23T18:33:58.192Z,4.87
2022-12-23T18:39:01.020Z,4.80
2022-12-23T18:44:03.976Z,4.75
2022-12-23T18:49:06.774Z,4.73
2022-12-23T18:54:14.306Z,4.74
2022-12-23T18:59:24.234Z,4.75
2022-12-23T19:04:31.961Z,4.77
2022-12-23T19:09:34.910Z,4.78
2022-12-23T19:14:39.426Z,4.79
2022-12-23T19:19:42.315Z,4.80
2022-12-23T19:25:03.775Z,4.80
2022-12-23T19:30:11.177Z,4.80
2022-12-23T19:35:14.718Z,4.80
2022-12-23T19:40:17.531Z,4.80
2022-12-23T19:45:20.290Z,4.79
2022-12-23T19:50:23.047Z,4.80
2022-12-23T19:55:25.842Z,4.78
2022-12-23T20:00:28.576Z,4.76
2022-12-23T20:05:31.338Z,4.76
2022-12-23T20:10:34.069Z,4.79
2022-12-23T20:15:36.851Z,4.81
2022-12-23T20:20:44.248Z,4.81
2022-12-23T20:25:47.449Z,4.82
2022-12-23T20:31:19.019Z,4.82
2022-12-23T20:36:27.543Z,4.80
2022-12-23T20:41:31.598Z,4.78
2022-12-23T20:46:34.697Z,4.78
2022-12-23T20:51:37.613Z,4.79
2022-12-23T20:56:40.452Z,4.78
2022-12-23T21:01:43.302Z,4.79
2022-12-23T21:06:46.091Z,4.77
2022-12-23T21:11:48.945Z,4.73
2022-12-23T21:16:51.861Z,4.71
2022-12-23T21:21:54.822Z,4.68
2022-12-23T21:26:57.761Z,4.55
2022-12-23T21:32:00.718Z,4.44
2022-12-23T21:37:03.768Z,4.41
2022-12-23T21:42:06.662Z,4.28
2022-12-23T21:47:10.611Z,4.17
2022-12-23T21:52:13.408Z,4.13
2022-12-23T21:57:16.130Z,4.14
2022-12-23T22:02:20.204Z,4.14
2022-12-23T22:07:23.226Z,4.16
2022-12-23T22:12:25.989Z,4.18
2022-12-23T22:17:28.702Z,4.13
2022-12-23T22:22:31.489Z,4.08
2022-12-23T22:27:34.200Z,4.04
2022-12-23T22:32:42.235Z,4.04
2022-12-23T22:37:45.525Z,4.06
2022-12-23T22:42:48.368Z,4.08
2022-12-23T22:47:51.142Z,4.11
2022-12-23T22:52:54.055Z,4.10
2022-12-23T22:57:56.791Z,4.04
2022-12-23T23:02:59.501Z,4.01
2022-12-23T23:08:02.235Z,4.02
2022-12-23T23:13:05.009Z,3.96
2022-12-23T23:18:07.712Z,3.92
2022-12-23T23:23:10.475Z,3.87
2022-12-23T23:28:14.260Z,3.85
2022-12-23T23:33:17.337Z,3.83
2022-12-23T23:38:20.082Z,3.82
2022-12-23T23:43:23.932Z,3.85
2022-12-23T23:48:26.688Z,3.85
2022-12-23T23:53:29.458Z,3.80
2022-12-23T23:58:33.012Z,3.74
